Mansfield, Ohio
Current Conditions -  °F | °C
As of 3:52 AM on Monday 20 Oct 2014 (Local Time) from KMFD Reporting Station
Broken Clouds Broken Clouds  
Wind Chill: 44°   Ceiling: 12000
Heat Index: 46°   Visibility: 10mi
Dew Point: 38°   Wind: 5mph
Humidity: 73%   Direction: 190°S
Pressure: 30"   Gusts: NA
Location:  40.76°N, 82.51°W
Report Text: KMFD 200752Z AUTO 19004KT 10SM BKN120 08/03 A3000 RMK AO2 SLP162 T00780033
Loading
Personal Weather Stations






























Interactive Weather Map
Tropical Storm Tracking
New forecast layout! Learn more

10-Day Weather Forecast

Advertisements
Track Severe Weather on mobile